Time;durP1;ratioP1;P1;durP2;ratioP2;P2;SDS_P1;SDS_P2;PMS_P1;PMS_P2;Temp;Humidity;BMP_temperature;BMP_pressure;BME280_temperature;BME280_humidity;BME280_pressure;Samples;Min_cycle;Max_cycle;Signal;HPM_P1;HPM_P2
2022/09/18 05:54:38;;;;;;;;;;;;;;;;;;350825;27;1813;-64
2022/09/18 05:54:48;;;;;;;;;;;;;;;;;;350569;28;1538;-65
2022/09/18 05:54:59;;;;;;;;;;;;;;;;;;348396;28;937;-64
2022/09/18 05:55:09;;;;;;;;;;;;;;;;;;348447;28;825;-63
2022/09/18 05:55:19;;;;;;;;;;;;;;;;;;348378;28;960;-67
2022/09/18 05:55:30;;;;;;;;;;;;;;;;;;348385;28;905;-66
2022/09/18 05:55:41;;;;;;;;;;;;;;;;;;348387;28;937;-65
2022/09/18 05:55:51;;;;;;;;;;;;;;;;;;348441;28;925;-65
2022/09/18 05:56:01;;;;;;;;;;;;;;;;;;348352;28;929;-64
2022/09/18 05:56:12;;;;;;;;;;;;;;;;;;348413;28;791;-65
2022/09/18 05:56:22;;;;;;;;;;;;;;;;;;348445;28;921;-64
2022/09/18 05:56:32;;;;;;;;;;;;;;;;;;348342;28;925;-65
2022/09/18 05:56:42;;;;;;;;;;;;;;;;;;348416;28;977;-64
2022/09/18 05:56:53;;;;;;;;;;;;;;;;;;348392;28;825;-64
2022/09/18 05:57:03;;;;;;;;;;;;;;;;;;348352;28;968;-64
2022/09/18 05:57:13;;;;;;;;;;;;;;;;;;348447;28;937;-64
2022/09/18 05:57:24;;;;;;;;;;;;;;;;;;348480;28;889;-65
2022/09/18 05:57:34;;;;;;;;;;;;;;;;;;348356;28;976;-65
2022/09/18 05:57:44;;;;;;;;;;;;;;;;;;348336;28;965;-65
2022/09/18 05:57:55;;;;;;;;;;;;;;;;;;348433;28;790;-65
2022/09/18 05:58:06;;;;;;;;;;;;;;;;;;348452;28;988;-65
2022/09/18 05:58:17;;;;;;;;;;;;;;;;;;348363;28;944;-65
2022/09/18 05:58:28;;;;;;;;;;;;;;;;;;348356;28;979;-65
2022/09/18 05:58:38;;;;;;;;;;;;;;;;;;348427;28;838;-65
2022/09/18 05:58:48;;;;;;;;;;;;;;;;;;348459;28;991;-65
2022/09/18 05:58:58;;;;;;;;;;;;;;;;;;348412;28;1015;-65
2022/09/18 05:59:08;;;;;;;;;;;;;;;;;;348385;28;808;-66
2022/09/18 05:59:19;;;;;;;;;;;;;;;;;;348795;28;785;-66
2022/09/18 05:59:29;;;;;;;;;;;;;;;;;;349732;28;1028;-65
2022/09/18 05:59:39;;;;;;;;;;;;;;;;;;349821;28;988;-65
2022/09/18 05:59:49;;;;;;;;;;;;;;;;;;349734;28;798;-65
2022/09/18 06:00:00;;;;;;;;;;;;;;;;;;349792;28;901;-65
2022/09/18 06:00:10;;;;;;;;;;;;;;;;;;349803;28;856;-65
2022/09/18 06:00:21;;;;;;;;;;;;;;;;;;349671;28;980;-65
2022/09/18 06:00:33;;;;;;;;;;;;;;;;;;349691;28;960;-65
2022/09/18 06:00:44;;;;;;;;;;;;;;;;;;349813;28;876;-67
2022/09/18 06:01:00;;;;;;;;;;;;;;;;;;349814;28;774;-65
2022/09/18 06:01:13;;;;;;;;;;;;;;;;;;349738;28;819;-65
2022/09/18 06:01:23;;;;;;;;;;;;;;;;;;348414;28;794;-65
2022/09/18 06:01:33;;;;;;;;;;;;;;;;;;348404;28;968;-65
2022/09/18 06:01:43;;;;;;;;;;;;;;;;;;348350;28;933;-65
2022/09/18 06:01:54;;;;;;;;;;;;;;;;;;348428;28;989;-65
2022/09/18 06:02:04;;;;;;;;;;;;;;;;;;348414;28;921;-65
2022/09/18 06:02:14;;;;;;;;;;;;;;;;;;348378;28;750;-65
2022/09/18 06:02:24;;;;;;;;;;;;;;;;;;348313;28;952;-65
2022/09/18 06:02:35;;;;;;;;;;;;;;;;;;348192;28;1107;-65
2022/09/18 06:02:52;;;;;;;;;;;;;;;;;;348430;28;853;-65
2022/09/18 06:03:06;;;;;;;;;;;;;;;;;;348372;28;975;-65
2022/09/18 06:03:17;;;;;;;;;;;;;;;;;;348401;28;988;-66
2022/09/18 06:03:27;;;;;;;;;;;;;;;;;;348378;28;968;-65
2022/09/18 06:03:38;;;;;;;;;;;;;;;;;;348369;28;810;-66
2022/09/18 06:03:48;;;;;;;;;;;;;;;;;;348396;28;794;-65
2022/09/18 06:04:01;;;;;;;;;;;;;;;;;;348355;28;905;-65
2022/09/18 06:04:11;;;;;;;;;;;;;;;;;;348326;28;858;-66
2022/09/18 06:04:22;;;;;;;;;;;;;;;;;;348381;28;909;-66
2022/09/18 06:04:32;;;;;;;;;;;;;;;;;;348282;28;767;-66
2022/09/18 06:04:42;;;;;;;;;;;;;;;;;;348286;28;858;-65
2022/09/18 06:04:52;;;;;;;;;;;;;;;;;;348390;28;945;-65
2022/09/18 06:05:03;;;;;;;;;;;;;;;;;;348374;28;949;-65
2022/09/18 06:05:13;;;;;;;;;;;;;;;;;;348348;28;964;-65
2022/09/18 06:05:24;;;;;;;;;;;;;;;;;;348348;28;971;-65
2022/09/18 06:05:36;;;;;;;;;;;;;;;;;;348379;28;901;-65
2022/09/18 06:05:50;;;;;;;;;;;;;;;;;;348304;28;1007;-65
2022/09/18 06:06:00;;;;;;;;;;;;;;;;;;348394;28;913;-65
2022/09/18 06:06:10;;;;;;;;;;;;;;;;;;348425;28;933;-65
2022/09/18 06:06:20;;;;;;;;;;;;;;;;;;348352;28;825;-65
2022/09/18 06:06:31;;;;;;;;;;;;;;;;;;348427;28;948;-65
2022/09/18 06:06:41;;;;;;;;;;;;;;;;;;348336;28;783;-65
2022/09/18 06:06:52;;;;;;;;;;;;;;;;;;348393;28;857;-65
2022/09/18 06:07:02;;;;;;;;;;;;;;;;;;348403;28;837;-65
2022/09/18 06:07:15;;;;;;;;;;;;;;;;;;348418;28;901;-65
2022/09/18 06:07:25;;;;;;;;;;;;;;;;;;348401;28;877;-65
2022/09/18 06:07:35;;;;;;;;;;;;;;;;;;348452;28;920;-65
2022/09/18 06:07:46;;;;;;;;;;;;;;;;;;348338;28;1111;-65
2022/09/18 06:07:57;;;;;;;;;;;;;;;;;;348418;28;920;-65
2022/09/18 06:08:08;;;;;;;;;;;;;;;;;;348361;28;1000;-65
2022/09/18 06:08:19;;;;;;;;;;;;;;;;;;348409;28;869;-65
2022/09/18 06:08:29;;;;;;;;;;;;;;;;;;348431;28;821;-65
2022/09/18 06:08:40;;;;;;;;;;;;;;;;;;348350;28;956;-65
2022/09/18 06:08:50;;;;;;;;;;;;;;;;;;348334;28;789;-65
2022/09/18 06:09:00;;;;;;;;;;;;;;;;;;348379;28;928;-65
2022/09/18 06:09:10;;;;;;;;;;;;;;;;;;348344;28;972;-65
2022/09/18 06:09:21;;;;;;;;;;;;;;;;;;348371;28;901;-65
2022/09/18 06:09:31;;;;;;;;;;;;;;;;;;348357;28;913;-65
2022/09/18 06:09:41;;;;;;;;;;;;;;;;;;348319;28;913;-66
2022/09/18 06:09:51;;;;;;;;;;;;;;;;;;348357;28;925;-65
2022/09/18 06:10:03;;;;;;;;;;;;;;;;;;348259;28;929;-65
2022/09/18 06:10:13;;;;;;;;;;;;;;;;;;348314;28;909;-65
2022/09/18 06:10:23;;;;;;;;;;;;;;;;;;348310;28;818;-65
2022/09/18 06:10:36;;;;;;;;;;;;;;;;;;348183;28;1016;-65
2022/09/18 06:10:46;;;;;;;;;;;;;;;;;;348237;28;873;-65
2022/09/18 06:10:59;;;;;;;;;;;;;;;;;;348259;28;933;-65
2022/09/18 06:11:09;;;;;;;;;;;;;;;;;;348290;28;881;-65
2022/09/18 06:11:20;;;;;;;;;;;;;;;;;;348167;28;1025;-65
2022/09/18 06:11:30;;;;;;;;;;;;;;;;;;348248;28;1012;-65
2022/09/18 06:11:40;;;;;;;;;;;;;;;;;;348957;28;1317;-65
2022/09/18 06:11:50;;;;;;;;;;;;;;;;;;349644;28;836;-64
2022/09/18 06:12:01;;;;;;;;;;;;;;;;;;349686;28;1202;-64
2022/09/18 06:12:11;;;;;;;;;;;;;;;;;;349661;28;850;-64
2022/09/18 06:12:21;;;;;;;;;;;;;;;;;;349737;28;834;-64
2022/09/18 06:12:31;;;;;;;;;;;;;;;;;;349738;28;941;-64
2022/09/18 06:12:42;;;;;;;;;;;;;;;;;;349738;28;917;-64
2022/09/18 06:13:03;;;;;;;;;;;;;;;;;;349639;28;1008;-63
2022/09/18 06:13:14;;;;;;;;;;;;;;;;;;349717;28;992;-65
2022/09/18 06:13:25;;;;;;;;;;;;;;;;;;349825;28;1048;-64
2022/09/18 06:13:35;;;;;;;;;;;;;;;;;;349827;28;987;-64
2022/09/18 06:13:47;;;;;;;;;;;;;;;;;;349730;28;917;-64
2022/09/18 06:13:58;;;;;;;;;;;;;;;;;;349689;28;999;-64
2022/09/18 06:14:08;;;;;;;;;;;;;;;;;;349739;28;1115;-64
2022/09/18 06:14:18;;;;;;;;;;;;;;;;;;349654;28;876;-64
2022/09/18 06:14:28;;;;;;;;;;;;;;;;;;349657;28;1905;-64
2022/09/18 06:14:38;;;;;;;;;;;;;;;;;;349732;28;1214;-64
2022/09/18 06:14:49;;;;;;;;;;;;;;;;;;349638;28;988;-64
2022/09/18 06:14:59;;;;;;;;;;;;;;;;;;349665;28;1009;-64
2022/09/18 06:15:10;;;;;;;;;;;;;;;;;;349667;28;901;-64
2022/09/18 06:15:20;;;;;;;;;;;;;;;;;;349734;28;770;-64
2022/09/18 06:15:30;;;;;;;;;;;;;;;;;;349764;28;914;-64
2022/09/18 06:15:45;;;;;;;;;;;;;;;;;;349746;28;818;-64
2022/09/18 06:15:56;;;;;;;;;;;;;;;;;;349708;28;920;-64
2022/09/18 06:16:06;;;;;;;;;;;;;;;;;;349771;28;948;-64
2022/09/18 06:16:17;;;;;;;;;;;;;;;;;;349341;28;906;-64
2022/09/18 06:16:27;;;;;;;;;;;;;;;;;;348348;28;976;-64
2022/09/18 06:16:38;;;;;;;;;;;;;;;;;;348394;28;952;-64
2022/09/18 06:16:48;;;;;;;;;;;;;;;;;;348404;28;787;-64
2022/09/18 06:16:59;;;;;;;;;;;;;;;;;;348305;28;854;-64
2022/09/18 06:17:09;;;;;;;;;;;;;;;;;;348394;28;933;-64
2022/09/18 06:17:19;;;;;;;;;;;;;;;;;;348358;28;995;-64
2022/09/18 06:17:29;;;;;;;;;;;;;;;;;;348379;28;961;-64
2022/09/18 06:17:40;;;;;;;;;;;;;;;;;;348375;28;975;-64
2022/09/18 06:17:50;;;;;;;;;;;;;;;;;;348422;28;873;-64
2022/09/18 06:18:01;;;;;;;;;;;;;;;;;;348400;28;933;-64
2022/09/18 06:18:13;;;;;;;;;;;;;;;;;;348317;28;1032;-64
2022/09/18 06:18:23;;;;;;;;;;;;;;;;;;348373;28;944;-64
2022/09/18 06:18:33;;;;;;;;;;;;;;;;;;348316;28;1072;-64
2022/09/18 06:18:44;;;;;;;;;;;;;;;;;;349567;28;1929;-65
2022/09/18 06:18:54;;;;;;;;;;;;;;;;;;351104;28;905;-64
2022/09/18 06:19:04;;;;;;;;;;;;;;;;;;351136;28;1011;-64
2022/09/18 06:19:14;;;;;;;;;;;;;;;;;;351047;28;996;-64
2022/09/18 06:19:25;;;;;;;;;;;;;;;;;;351184;28;905;-64
2022/09/18 06:19:35;;;;;;;;;;;;;;;;;;351152;28;917;-64
2022/09/18 06:19:45;;;;;;;;;;;;;;;;;;351070;28;959;-65
2022/09/18 06:19:55;;;;;;;;;;;;;;;;;;351010;28;1169;-64
2022/09/18 06:20:07;;;;;;;;;;;;;;;;;;351151;28;912;-64
2022/09/18 06:20:18;;;;;;;;;;;;;;;;;;351124;28;964;-64
2022/09/18 06:20:28;;;;;;;;;;;;;;;;;;351154;28;971;-64
2022/09/18 06:20:43;;;;;;;;;;;;;;;;;;351141;28;909;-64
2022/09/18 06:20:55;;;;;;;;;;;;;;;;;;351122;28;861;-65
2022/09/18 06:21:05;;;;;;;;;;;;;;;;;;351072;28;1322;-64
2022/09/18 06:21:15;;;;;;;;;;;;;;;;;;351095;28;877;-64
2022/09/18 06:21:25;;;;;;;;;;;;;;;;;;351098;28;1008;-64
2022/09/18 06:21:35;;;;;;;;;;;;;;;;;;351100;28;1019;-64
2022/09/18 06:21:46;;;;;;;;;;;;;;;;;;351110;28;1015;-64
2022/09/18 06:21:56;;;;;;;;;;;;;;;;;;351150;28;870;-64
2022/09/18 06:22:06;;;;;;;;;;;;;;;;;;351135;28;933;-64
2022/09/18 06:22:16;;;;;;;;;;;;;;;;;;351117;28;917;-64
2022/09/18 06:22:26;;;;;;;;;;;;;;;;;;351124;28;968;-64
2022/09/18 06:22:37;;;;;;;;;;;;;;;;;;351120;28;792;-64
2022/09/18 06:22:47;;;;;;;;;;;;;;;;;;351127;28;960;-64
2022/09/18 06:22:58;;;;;;;;;;;;;;;;;;351110;28;967;-65
2022/09/18 06:23:08;;;;;;;;;;;;;;;;;;351087;28;848;-64
2022/09/18 06:23:18;;;;;;;;;;;;;;;;;;351020;28;1212;-65
2022/09/18 06:23:28;;;;;;;;;;;;;;;;;;351174;28;952;-66
2022/09/18 06:23:39;;;;;;;;;;;;;;;;;;351162;28;798;-65
2022/09/18 06:23:49;;;;;;;;;;;;;;;;;;351039;28;941;-64
2022/09/18 06:23:59;;;;;;;;;;;;;;;;;;351133;28;905;-65
2022/09/18 06:24:10;;;;;;;;;;;;;;;;;;351212;28;838;-66
2022/09/18 06:24:20;;;;;;;;;;;;;;;;;;351078;28;964;-64
2022/09/18 06:24:30;;;;;;;;;;;;;;;;;;351063;28;924;-64
2022/09/18 06:24:40;;;;;;;;;;;;;;;;;;351087;28;936;-64
2022/09/18 06:24:51;;;;;;;;;;;;;;;;;;351123;28;786;-65
2022/09/18 06:25:01;;;;;;;;;;;;;;;;;;351120;28;774;-65
2022/09/18 06:25:12;;;;;;;;;;;;;;;;;;351101;28;905;-64
2022/09/18 06:25:22;;;;;;;;;;;;;;;;;;351041;28;794;-65
2022/09/18 06:25:33;;;;;;;;;;;;;;;;;;351120;28;924;-65
2022/09/18 06:25:43;;;;;;;;;;;;;;;;;;351041;28;1019;-64
2022/09/18 06:26:00;;;;;;;;;;;;;;;;;;351155;28;782;-64
2022/09/18 06:26:10;;;;;;;;;;;;;;;;;;351117;28;766;-64
2022/09/18 06:26:21;;;;;;;;;;;;;;;;;;351038;28;913;-65
2022/09/18 06:26:31;;;;;;;;;;;;;;;;;;351141;28;862;-65
2022/09/18 06:26:41;;;;;;;;;;;;;;;;;;351095;28;1028;-64
2022/09/18 06:26:51;;;;;;;;;;;;;;;;;;351142;28;956;-64
2022/09/18 06:27:02;;;;;;;;;;;;;;;;;;351166;28;854;-64
2022/09/18 06:27:12;;;;;;;;;;;;;;;;;;351166;28;850;-64
2022/09/18 06:27:22;;;;;;;;;;;;;;;;;;351075;28;1148;-65
2022/09/18 06:27:33;;;;;;;;;;;;;;;;;;351076;28;917;-65
2022/09/18 06:27:43;;;;;;;;;;;;;;;;;;351176;28;786;-64
2022/09/18 06:28:00;;;;;;;;;;;;;;;;;;351126;28;945;-64
2022/09/18 06:28:10;;;;;;;;;;;;;;;;;;351107;28;937;-64
2022/09/18 06:28:20;;;;;;;;;;;;;;;;;;351087;28;1014;-64
2022/09/18 06:28:31;;;;;;;;;;;;;;;;;;351135;28;829;-64
2022/09/18 06:28:41;;;;;;;;;;;;;;;;;;351146;28;976;-65
2022/09/18 06:28:51;;;;;;;;;;;;;;;;;;351141;28;929;-64
2022/09/18 06:29:01;;;;;;;;;;;;;;;;;;351128;28;937;-64
2022/09/18 06:29:12;;;;;;;;;;;;;;;;;;351096;28;921;-64
2022/09/18 06:29:22;;;;;;;;;;;;;;;;;;351129;28;775;-64
2022/09/18 06:29:32;;;;;;;;;;;;;;;;;;351106;28;933;-65
2022/09/18 06:29:43;;;;;;;;;;;;;;;;;;351116;28;996;-65
2022/09/18 06:29:53;;;;;;;;;;;;;;;;;;351152;28;1012;-65
2022/09/18 06:30:04;;;;;;;;;;;;;;;;;;351095;28;917;-65
2022/09/18 06:30:15;;;;;;;;;;;;;;;;;;351101;28;983;-64
2022/09/18 06:30:26;;;;;;;;;;;;;;;;;;351084;28;941;-65
2022/09/18 06:30:37;;;;;;;;;;;;;;;;;;351103;28;991;-65
2022/09/18 06:30:47;;;;;;;;;;;;;;;;;;351053;28;1019;-64
2022/09/18 06:30:57;;;;;;;;;;;;;;;;;;351074;28;972;-65
2022/09/18 06:31:08;;;;;;;;;;;;;;;;;;351025;28;1019;-64
2022/09/18 06:31:18;;;;;;;;;;;;;;;;;;351121;28;1007;-64
2022/09/18 06:31:28;;;;;;;;;;;;;;;;;;351114;28;837;-64
2022/09/18 06:31:38;;;;;;;;;;;;;;;;;;351085;28;850;-64
2022/09/18 06:31:49;;;;;;;;;;;;;;;;;;351030;28;964;-64
2022/09/18 06:31:59;;;;;;;;;;;;;;;;;;351148;28;988;-64
2022/09/18 06:32:09;;;;;;;;;;;;;;;;;;351110;28;905;-64
2022/09/18 06:32:19;;;;;;;;;;;;;;;;;;351083;28;996;-64
2022/09/18 06:32:30;;;;;;;;;;;;;;;;;;351104;28;988;-64
2022/09/18 06:32:40;;;;;;;;;;;;;;;;;;351106;28;854;-64
2022/09/18 06:32:50;;;;;;;;;;;;;;;;;;351127;28;893;-64
2022/09/18 06:33:02;;;;;;;;;;;;;;;;;;351083;28;908;-64
2022/09/18 06:33:12;;;;;;;;;;;;;;;;;;350884;28;781;-64
2022/09/18 06:33:22;;;;;;;;;;;;;;;;;;349384;28;925;-64
2022/09/18 06:33:34;;;;;;;;;;;;;;;;;;349729;28;916;-64
2022/09/18 06:33:46;;;;;;;;;;;;;;;;;;349604;28;1000;-64
2022/09/18 06:33:56;;;;;;;;;;;;;;;;;;349767;28;850;-64
2022/09/18 06:34:07;;;;;;;;;;;;;;;;;;349734;28;917;-64
2022/09/18 06:34:17;;;;;;;;;;;;;;;;;;349660;28;897;-63
2022/09/18 06:34:27;;;;;;;;;;;;;;;;;;349662;28;1914;-63
2022/09/18 06:34:37;;;;;;;;;;;;;;;;;;349603;28;944;-64
2022/09/18 06:34:47;;;;;;;;;;;;;;;;;;349625;28;905;-64
2022/09/18 06:34:57;;;;;;;;;;;;;;;;;;349631;28;910;-63
2022/09/18 06:35:08;;;;;;;;;;;;;;;;;;349633;28;920;-63
2022/09/18 06:35:19;;;;;;;;;;;;;;;;;;349540;28;964;-63
2022/09/18 06:35:31;;;;;;;;;;;;;;;;;;349638;28;913;-63
2022/09/18 06:35:41;;;;;;;;;;;;;;;;;;349621;28;940;-64
2022/09/18 06:35:51;;;;;;;;;;;;;;;;;;349543;28;702;-63
2022/09/18 06:36:07;;;;;;;;;;;;;;;;;;349633;28;995;-64
2022/09/18 06:36:17;;;;;;;;;;;;;;;;;;349617;28;857;-63
2022/09/18 06:36:27;;;;;;;;;;;;;;;;;;349585;28;968;-64
2022/09/18 06:36:37;;;;;;;;;;;;;;;;;;349717;28;937;-63
2022/09/18 06:36:47;;;;;;;;;;;;;;;;;;349677;28;762;-63
2022/09/18 06:36:57;;;;;;;;;;;;;;;;;;349657;28;913;-63
2022/09/18 06:37:08;;;;;;;;;;;;;;;;;;349773;28;965;-64
2022/09/18 06:37:18;;;;;;;;;;;;;;;;;;349680;28;933;-63
2022/09/18 06:37:29;;;;;;;;;;;;;;;;;;349734;28;964;-63
2022/09/18 06:37:39;;;;;;;;;;;;;;;;;;349640;28;902;-63
2022/09/18 06:37:49;;;;;;;;;;;;;;;;;;349691;28;921;-64
2022/09/18 06:38:03;;;;;;;;;;;;;;;;;;349679;28;976;-64
2022/09/18 06:38:14;;;;;;;;;;;;;;;;;;349747;28;897;-63
2022/09/18 06:38:24;;;;;;;;;;;;;;;;;;349644;28;988;-63
2022/09/18 06:38:34;;;;;;;;;;;;;;;;;;349718;28;996;-63
2022/09/18 06:38:48;;;;;;;;;;;;;;;;;;349763;28;787;-63
2022/09/18 06:38:58;;;;;;;;;;;;;;;;;;349726;28;913;-63
2022/09/18 06:39:08;;;;;;;;;;;;;;;;;;349711;28;913;-63
2022/09/18 06:39:18;;;;;;;;;;;;;;;;;;349716;28;844;-63
2022/09/18 06:39:29;;;;;;;;;;;;;;;;;;349697;28;952;-63
2022/09/18 06:39:39;;;;;;;;;;;;;;;;;;349734;28;916;-63
2022/09/18 06:39:50;;;;;;;;;;;;;;;;;;349727;28;853;-63
2022/09/18 06:40:00;;;;;;;;;;;;;;;;;;349730;28;937;-63
2022/09/18 06:40:10;;;;;;;;;;;;;;;;;;349756;28;865;-64
2022/09/18 06:40:20;;;;;;;;;;;;;;;;;;349701;28;967;-63
2022/09/18 06:40:31;;;;;;;;;;;;;;;;;;349673;28;1024;-63
2022/09/18 06:40:51;;;;;;;;;;;;;;;;;;349732;28;979;-64
2022/09/18 06:41:01;;;;;;;;;;;;;;;;;;349694;28;1628;-63
2022/09/18 06:41:11;;;;;;;;;;;;;;;;;;349681;28;996;-63
2022/09/18 06:41:22;;;;;;;;;;;;;;;;;;349712;28;909;-63
2022/09/18 06:41:32;;;;;;;;;;;;;;;;;;349746;28;1044;-63
2022/09/18 06:41:42;;;;;;;;;;;;;;;;;;349722;28;968;-63
2022/09/18 06:41:53;;;;;;;;;;;;;;;;;;349647;28;1131;-63
2022/09/18 06:42:03;;;;;;;;;;;;;;;;;;349684;28;842;-63
2022/09/18 06:42:14;;;;;;;;;;;;;;;;;;349755;28;913;-63
2022/09/18 06:42:24;;;;;;;;;;;;;;;;;;349622;28;1353;-63
2022/09/18 06:42:34;;;;;;;;;;;;;;;;;;349672;28;928;-63
2022/09/18 06:42:45;;;;;;;;;;;;;;;;;;349715;28;976;-63
2022/09/18 06:42:56;;;;;;;;;;;;;;;;;;349730;28;821;-63
2022/09/18 06:43:06;;;;;;;;;;;;;;;;;;349730;28;920;-64
2022/09/18 06:43:17;;;;;;;;;;;;;;;;;;349681;28;857;-63
2022/09/18 06:43:27;;;;;;;;;;;;;;;;;;349709;28;873;-63
2022/09/18 06:43:37;;;;;;;;;;;;;;;;;;349732;28;901;-63
2022/09/18 06:43:50;;;;;;;;;;;;;;;;;;349677;28;849;-64
2022/09/18 06:44:00;;;;;;;;;;;;;;;;;;349658;28;996;-64
2022/09/18 06:44:11;;;;;;;;;;;;;;;;;;349688;28;766;-63
2022/09/18 06:44:21;;;;;;;;;;;;;;;;;;349719;28;759;-63
2022/09/18 06:44:31;;;;;;;;;;;;;;;;;;349690;28;953;-63
2022/09/18 06:44:41;;;;;;;;;;;;;;;;;;349645;28;933;-64
2022/09/18 06:44:53;;;;;;;;;;;;;;;;;;349658;28;988;-64
2022/09/18 06:45:03;;;;;;;;;;;;;;;;;;348749;28;1893;-63
2022/09/18 06:45:13;;;;;;;;;;;;;;;;;;349259;28;1830;-64
2022/09/18 06:45:24;;;;;;;;;;;;;;;;;;349675;28;916;-64
2022/09/18 06:45:34;;;;;;;;;;;;;;;;;;349495;28;1537;-64
2022/09/18 06:45:52;;;;;;;;;;;;;;;;;;349598;28;1479;-64
2022/09/18 06:46:03;;;;;;;;;;;;;;;;;;349728;28;973;-64
2022/09/18 06:46:13;;;;;;;;;;;;;;;;;;350732;28;1261;-65
2022/09/18 06:46:23;;;;;;;;;;;;;;;;;;351161;28;987;-65
2022/09/18 06:46:33;;;;;;;;;;;;;;;;;;351111;28;897;-64
2022/09/18 06:46:45;;;;;;;;;;;;;;;;;;351104;28;1003;-64
2022/09/18 06:46:55;;;;;;;;;;;;;;;;;;351139;28;952;-65
2022/09/18 06:47:05;;;;;;;;;;;;;;;;;;350431;28;1764;-65
2022/09/18 06:47:15;;;;;;;;;;;;;;;;;;349777;28;925;-65
2022/09/18 06:47:26;;;;;;;;;;;;;;;;;;349719;28;1048;-65
2022/09/18 06:47:36;;;;;;;;;;;;;;;;;;349669;28;864;-64
2022/09/18 06:47:46;;;;;;;;;;;;;;;;;;349747;28;865;-64
2022/09/18 06:48:00;;;;;;;;;;;;;;;;;;349741;28;936;-64
2022/09/18 06:48:11;;;;;;;;;;;;;;;;;;348279;28;980;-64
2022/09/18 06:48:22;;;;;;;;;;;;;;;;;;348283;28;1004;-64
2022/09/18 06:48:32;;;;;;;;;;;;;;;;;;348350;28;905;-64
2022/09/18 06:48:43;;;;;;;;;;;;;;;;;;348369;28;833;-64
2022/09/18 06:48:53;;;;;;;;;;;;;;;;;;348285;28;843;-65
2022/09/18 06:49:03;;;;;;;;;;;;;;;;;;348376;28;767;-64
2022/09/18 06:49:13;;;;;;;;;;;;;;;;;;348404;28;1024;-64
2022/09/18 06:49:23;;;;;;;;;;;;;;;;;;348373;28;782;-65
2022/09/18 06:49:34;;;;;;;;;;;;;;;;;;348307;28;976;-63
2022/09/18 06:49:44;;;;;;;;;;;;;;;;;;348280;28;985;-64
2022/09/18 06:49:54;;;;;;;;;;;;;;;;;;348242;28;1146;-64
2022/09/18 06:50:06;;;;;;;;;;;;;;;;;;348335;28;917;-64
2022/09/18 06:50:17;;;;;;;;;;;;;;;;;;348367;28;944;-64
2022/09/18 06:50:28;;;;;;;;;;;;;;;;;;348265;28;869;-64
2022/09/18 06:50:38;;;;;;;;;;;;;;;;;;348324;28;937;-64
2022/09/18 06:50:49;;;;;;;;;;;;;;;;;;348357;28;941;-64
2022/09/18 06:51:00;;;;;;;;;;;;;;;;;;348407;28;862;-64
2022/09/18 06:51:11;;;;;;;;;;;;;;;;;;349098;28;1753;-64
2022/09/18 06:51:21;;;;;;;;;;;;;;;;;;349706;28;869;-64
2022/09/18 06:51:31;;;;;;;;;;;;;;;;;;349706;28;983;-64
2022/09/18 06:51:41;;;;;;;;;;;;;;;;;;349631;28;802;-64
2022/09/18 06:51:51;;;;;;;;;;;;;;;;;;349750;28;856;-64
2022/09/18 06:52:02;;;;;;;;;;;;;;;;;;349652;28;964;-64
2022/09/18 06:52:12;;;;;;;;;;;;;;;;;;349787;28;897;-64
2022/09/18 06:52:22;;;;;;;;;;;;;;;;;;349691;28;917;-64
2022/09/18 06:52:32;;;;;;;;;;;;;;;;;;349531;28;1450;-65
2022/09/18 06:52:42;;;;;;;;;;;;;;;;;;349083;28;1728;-64
2022/09/18 06:52:53;;;;;;;;;;;;;;;;;;349569;28;1853;-64
2022/09/18 06:53:04;;;;;;;;;;;;;;;;;;349958;28;935;-64
2022/09/18 06:53:14;;;;;;;;;;;;;;;;;;350401;28;1426;-65
2022/09/18 06:53:25;;;;;;;;;;;;;;;;;;349701;28;924;-64
2022/09/18 06:53:35;;;;;;;;;;;;;;;;;;348500;28;1363;-64
2022/09/18 06:53:45;;;;;;;;;;;;;;;;;;349248;28;1430;-64
2022/09/18 06:53:56;;;;;;;;;;;;;;;;;;348747;28;1630;-63
2022/09/18 06:54:06;;;;;;;;;;;;;;;;;;350080;28;1811;-63
2022/09/18 06:54:16;;;;;;;;;;;;;;;;;;351044;28;904;-63
2022/09/18 06:54:27;;;;;;;;;;;;;;;;;;350671;28;1967;-63
2022/09/18 06:54:37;;;;;;;;;;;;;;;;;;349611;28;793;-63
2022/09/18 06:54:47;;;;;;;;;;;;;;;;;;349728;28;912;-63
2022/09/18 06:54:57;;;;;;;;;;;;;;;;;;349680;28;971;-63
2022/09/18 06:55:07;;;;;;;;;;;;;;;;;;350953;28;1244;-63
2022/09/18 06:55:18;;;;;;;;;;;;;;;;;;351127;28;979;-63
2022/09/18 06:55:28;;;;;;;;;;;;;;;;;;351124;28;920;-63
2022/09/18 06:55:38;;;;;;;;;;;;;;;;;;351035;27;1011;-63
2022/09/18 06:55:49;;;;;;;;;;;;;;;;;;350729;28;1773;-63
2022/09/18 06:56:02;;;;;;;;;;;;;;;;;;349753;28;849;-63
2022/09/18 06:56:12;;;;;;;;;;;;;;;;;;349761;28;976;-63
2022/09/18 06:56:22;;;;;;;;;;;;;;;;;;349633;28;995;-63
2022/09/18 06:56:32;;;;;;;;;;;;;;;;;;349682;28;908;-63
2022/09/18 06:56:44;;;;;;;;;;;;;;;;;;349728;28;980;-63
2022/09/18 06:56:55;;;;;;;;;;;;;;;;;;349721;28;1035;-63
2022/09/18 06:57:06;;;;;;;;;;;;;;;;;;349669;28;920;-63
2022/09/18 06:57:16;;;;;;;;;;;;;;;;;;349608;28;976;-63
2022/09/18 06:57:26;;;;;;;;;;;;;;;;;;349699;28;963;-63
2022/09/18 06:57:36;;;;;;;;;;;;;;;;;;349729;28;794;-63
2022/09/18 06:57:54;;;;;;;;;;;;;;;;;;349664;28;913;-63
2022/09/18 06:58:04;;;;;;;;;;;;;;;;;;349691;28;841;-63
2022/09/18 06:58:15;;;;;;;;;;;;;;;;;;349650;28;802;-63
2022/09/18 06:58:25;;;;;;;;;;;;;;;;;;349742;28;1215;-63
2022/09/18 06:58:36;;;;;;;;;;;;;;;;;;349644;28;996;-63
2022/09/18 06:58:46;;;;;;;;;;;;;;;;;;349639;28;1023;-63
2022/09/18 06:58:56;;;;;;;;;;;;;;;;;;349693;28;794;-63
2022/09/18 06:59:06;;;;;;;;;;;;;;;;;;350302;28;1355;-63
2022/09/18 06:59:16;;;;;;;;;;;;;;;;;;351090;28;975;-63
2022/09/18 06:59:27;;;;;;;;;;;;;;;;;;351095;28;912;-63
2022/09/18 06:59:37;;;;;;;;;;;;;;;;;;351106;28;890;-64
2022/09/18 06:59:47;;;;;;;;;;;;;;;;;;351078;28;860;-63
2022/09/18 06:59:57;;;;;;;;;;;;;;;;;;349925;28;1801;-63
2022/09/18 07:00:08;;;;;;;;;;;;;;;;;;349701;28;904;-63
2022/09/18 07:00:18;;;;;;;;;;;;;;;;;;349505;28;952;-64
2022/09/18 07:00:29;;;;;;;;;;;;;;;;;;349594;28;898;-63
2022/09/18 07:00:39;;;;;;;;;;;;;;;;;;349560;28;857;-63
2022/09/18 07:00:49;;;;;;;;;;;;;;;;;;349513;28;968;-63
2022/09/18 07:01:01;;;;;;;;;;;;;;;;;;349561;28;909;-63
2022/09/18 07:01:11;;;;;;;;;;;;;;;;;;349570;28;865;-63
2022/09/18 07:01:22;;;;;;;;;;;;;;;;;;349551;28;996;-63
2022/09/18 07:01:32;;;;;;;;;;;;;;;;;;349627;28;794;-63
2022/09/18 07:01:42;;;;;;;;;;;;;;;;;;349550;28;988;-63
2022/09/18 07:01:52;;;;;;;;;;;;;;;;;;349573;28;925;-63
2022/09/18 07:02:03;;;;;;;;;;;;;;;;;;349579;28;818;-63
2022/09/18 07:02:13;;;;;;;;;;;;;;;;;;349634;28;1021;-63
2022/09/18 07:02:27;;;;;;;;;;;;;;;;;;349638;28;897;-63
2022/09/18 07:02:37;;;;;;;;;;;;;;;;;;349712;28;968;-63
2022/09/18 07:02:58;;;;;;;;;;;;;;;;;;349569;28;1229;-63
2022/09/18 07:03:08;;;;;;;;;;;;;;;;;;349273;28;1521;-63
2022/09/18 07:03:19;;;;;;;;;;;;;;;;;;350744;28;1312;-63
2022/09/18 07:03:29;;;;;;;;;;;;;;;;;;351127;28;905;-63
2022/09/18 07:03:39;;;;;;;;;;;;;;;;;;350890;28;1308;-63
2022/09/18 07:03:49;;;;;;;;;;;;;;;;;;349560;28;1011;-63
2022/09/18 07:04:00;;;;;;;;;;;;;;;;;;349710;28;983;-63
2022/09/18 07:04:10;;;;;;;;;;;;;;;;;;349706;28;865;-64
2022/09/18 07:04:20;;;;;;;;;;;;;;;;;;349428;28;1663;-65
2022/09/18 07:04:30;;;;;;;;;;;;;;;;;;349616;28;908;-64
2022/09/18 07:04:41;;;;;;;;;;;;;;;;;;348933;28;1407;-64
2022/09/18 07:04:51;;;;;;;;;;;;;;;;;;349680;28;805;-64
2022/09/18 07:05:01;;;;;;;;;;;;;;;;;;349896;28;1257;-64
2022/09/18 07:05:12;;;;;;;;;;;;;;;;;;351070;28;865;-64
2022/09/18 07:05:23;;;;;;;;;;;;;;;;;;351082;28;932;-64
2022/09/18 07:05:33;;;;;;;;;;;;;;;;;;351097;28;932;-64
2022/09/18 07:05:46;;;;;;;;;;;;;;;;;;350581;28;1399;-64
2022/09/18 07:05:57;;;;;;;;;;;;;;;;;;348157;28;988;-64
2022/09/18 07:06:08;;;;;;;;;;;;;;;;;;347173;28;969;-64
2022/09/18 07:06:18;;;;;;;;;;;;;;;;;;347215;28;980;-64
2022/09/18 07:06:28;;;;;;;;;;;;;;;;;;347306;28;968;-64
2022/09/18 07:06:38;;;;;;;;;;;;;;;;;;347138;28;1390;-65
2022/09/18 07:06:48;;;;;;;;;;;;;;;;;;348734;28;964;-64
2022/09/18 07:06:59;;;;;;;;;;;;;;;;;;348720;28;980;-64
2022/09/18 07:07:09;;;;;;;;;;;;;;;;;;348825;28;913;-64
2022/09/18 07:07:19;;;;;;;;;;;;;;;;;;348741;28;779;-64
2022/09/18 07:07:29;;;;;;;;;;;;;;;;;;348784;28;928;-64
2022/09/18 07:07:44;;;;;;;;;;;;;;;;;;348802;28;909;-64
2022/09/18 07:07:54;;;;;;;;;;;;;;;;;;348772;28;936;-64
2022/09/18 07:08:04;;;;;;;;;;;;;;;;;;348727;28;956;-64
2022/09/18 07:08:14;;;;;;;;;;;;;;;;;;349504;28;1269;-64
2022/09/18 07:08:25;;;;;;;;;;;;;;;;;;349212;28;1252;-64
2022/09/18 07:08:35;;;;;;;;;;;;;;;;;;348220;28;1379;-64
2022/09/18 07:08:45;;;;;;;;;;;;;;;;;;348663;28;1052;-64
2022/09/18 07:08:56;;;;;;;;;;;;;;;;;;350123;28;802;-65
2022/09/18 07:09:06;;;;;;;;;;;;;;;;;;350082;28;908;-65
2022/09/18 07:09:17;;;;;;;;;;;;;;;;;;350133;28;944;-65
2022/09/18 07:09:27;;;;;;;;;;;;;;;;;;350150;28;929;-65
2022/09/18 07:09:38;;;;;;;;;;;;;;;;;;350075;28;872;-65
2022/09/18 07:09:48;;;;;;;;;;;;;;;;;;350160;28;833;-65
2022/09/18 07:09:58;;;;;;;;;;;;;;;;;;350141;28;991;-66
2022/09/18 07:10:08;;;;;;;;;;;;;;;;;;349735;28;1304;-65
2022/09/18 07:10:19;;;;;;;;;;;;;;;;;;348821;28;782;-65
2022/09/18 07:10:29;;;;;;;;;;;;;;;;;;348801;28;964;-65
2022/09/18 07:10:40;;;;;;;;;;;;;;;;;;348708;28;945;-64
2022/09/18 07:10:50;;;;;;;;;;;;;;;;;;348750;28;972;-65
2022/09/18 07:11:01;;;;;;;;;;;;;;;;;;348746;28;925;-64
2022/09/18 07:11:11;;;;;;;;;;;;;;;;;;348693;28;1035;-64